createdAt,value
2022-12-20T00:01:58.196Z,27.33
2022-12-20T00:04:26.848Z,32.23
2022-12-20T00:06:55.446Z,33.37
2022-12-20T00:09:25.459Z,25.63
2022-12-20T00:11:54.127Z,30.20
2022-12-20T00:14:23.936Z,26.00
2022-12-20T00:16:52.588Z,31.83
2022-12-20T00:19:20.870Z,31.57
2022-12-20T00:21:49.830Z,31.60
2022-12-20T00:24:23.905Z,29.83
2022-12-20T00:26:54.630Z,23.00
2022-12-20T00:29:24.526Z,23.70
2022-12-20T00:31:53.639Z,25.93
2022-12-20T00:34:22.420Z,28.43
2022-12-20T00:36:51.018Z,23.13
2022-12-20T00:39:19.496Z,23.97
2022-12-20T00:41:48.111Z,31.03
2022-12-20T00:44:16.849Z,31.23
2022-12-20T00:46:46.935Z,33.80
2022-12-20T00:49:16.562Z,23.23
2022-12-20T00:51:45.531Z,26.27
2022-12-20T00:54:13.952Z,28.77
2022-12-20T00:56:42.497Z,31.07
2022-12-20T00:59:10.850Z,32.23
2022-12-20T01:01:39.926Z,32.13
2022-12-20T01:04:10.176Z,25.10
2022-12-20T01:06:39.027Z,33.27
2022-12-20T01:09:07.448Z,24.13
2022-12-20T01:11:37.911Z,24.20
2022-12-20T01:14:08.990Z,26.97
2022-12-20T01:16:40.392Z,33.63
2022-12-20T01:19:13.739Z,32.30
2022-12-20T01:21:44.825Z,27.47
2022-12-20T01:24:14.046Z,27.73
2022-12-20T01:26:43.530Z,28.13
2022-12-20T01:29:12.030Z,26.13
2022-12-20T01:31:40.762Z,34.43
2022-12-20T01:34:10.847Z,29.43
2022-12-20T01:36:39.895Z,33.77
2022-12-20T01:39:09.832Z,25.93
2022-12-20T01:41:39.847Z,32.93
2022-12-20T01:44:46.653Z,29.33
2022-12-20T01:47:16.938Z,25.90
2022-12-20T01:49:49.658Z,34.00
2022-12-20T01:52:21.674Z,31.00
2022-12-20T01:54:55.221Z,24.20
2022-12-20T01:57:28.487Z,26.30
2022-12-20T01:59:58.257Z,24.10
2022-12-20T02:02:28.921Z,29.73
2022-12-20T02:04:57.623Z,28.73
2022-12-20T02:07:30.817Z,24.77
2022-12-20T02:10:02.377Z,27.30
2022-12-20T02:12:39.405Z,30.97
2022-12-20T02:15:22.856Z,29.30
2022-12-20T02:18:05.322Z,34.67
2022-12-20T02:21:03.358Z,29.80
2022-12-20T02:24:00.505Z,27.07
2022-12-20T02:27:02.119Z,27.90
2022-12-20T02:29:37.701Z,30.37
2022-12-20T02:32:14.110Z,23.87
2022-12-20T02:34:43.991Z,35.70
2022-12-20T02:37:12.680Z,24.03
2022-12-20T02:39:43.367Z,26.10
2022-12-20T02:42:13.259Z,27.47
2022-12-20T02:45:06.890Z,24.93
2022-12-20T02:47:41.022Z,21.90
2022-12-20T02:50:11.375Z,33.33
2022-12-20T02:52:42.619Z,28.73
2022-12-20T02:55:11.702Z,31.97
2022-12-20T02:57:46.816Z,29.87
2022-12-20T03:00:17.539Z,24.07
2022-12-20T03:03:06.048Z,27.70
2022-12-20T03:05:37.137Z,32.07
2022-12-20T03:08:05.934Z,27.27
2022-12-20T03:10:34.432Z,36.13
2022-12-20T03:13:02.769Z,25.90
2022-12-20T03:15:31.731Z,25.63
2022-12-20T03:18:01.511Z,27.93
2022-12-20T03:20:30.353Z,27.07
2022-12-20T03:22:58.737Z,23.30
2022-12-20T03:25:28.029Z,24.60
2022-12-20T03:27:56.458Z,26.47
2022-12-20T03:30:25.341Z,29.37
2022-12-20T03:32:54.116Z,29.03
2022-12-20T03:35:24.417Z,30.67
2022-12-20T03:37:52.711Z,22.67
2022-12-20T03:40:21.292Z,20.97
2022-12-20T03:42:49.662Z,24.70
2022-12-20T03:45:19.290Z,21.10
2022-12-20T03:47:47.685Z,24.10
2022-12-20T03:50:16.280Z,22.70
2022-12-20T03:52:46.575Z,36.80
2022-12-20T03:55:15.252Z,34.23
2022-12-20T03:57:43.739Z,26.60
2022-12-20T04:00:13.783Z,25.67
2022-12-20T04:02:42.238Z,27.60
2022-12-20T04:05:11.227Z,26.30
2022-12-20T04:07:40.222Z,29.87
2022-12-20T04:10:11.163Z,30.83
2022-12-20T04:12:39.656Z,26.50
2022-12-20T04:15:09.381Z,26.57
2022-12-20T04:17:37.938Z,28.97
2022-12-20T04:20:19.898Z,25.23
2022-12-20T04:22:48.399Z,31.87
2022-12-20T04:25:21.232Z,25.90
2022-12-20T04:27:49.531Z,29.73
2022-12-20T04:30:18.263Z,29.20
2022-12-20T04:32:46.602Z,23.93
2022-12-20T04:35:15.051Z,24.53
2022-12-20T04:37:43.385Z,24.00
2022-12-20T04:40:13.297Z,25.50
2022-12-20T04:42:43.358Z,21.47
2022-12-20T04:45:12.833Z,27.50
2022-12-20T04:47:41.214Z,28.87
2022-12-20T04:50:10.370Z,21.17
2022-12-20T04:52:56.191Z,18.70
2022-12-20T04:55:25.061Z,21.80
2022-12-20T04:57:54.920Z,23.60
2022-12-20T05:00:23.620Z,27.60
2022-12-20T05:02:52.487Z,22.47
2022-12-20T05:05:21.487Z,29.43
2022-12-20T05:07:50.149Z,21.97
2022-12-20T05:10:19.170Z,23.67
2022-12-20T05:12:47.625Z,22.23
2022-12-20T05:15:17.799Z,26.03
2022-12-20T05:17:46.045Z,27.97
2022-12-20T05:20:15.462Z,22.70
2022-12-20T05:23:01.145Z,26.53
2022-12-20T05:25:47.098Z,23.67
2022-12-20T05:28:15.482Z,22.63
2022-12-20T05:30:45.429Z,26.03
2022-12-20T05:33:13.809Z,23.23
2022-12-20T05:35:42.658Z,28.33
2022-12-20T05:38:11.018Z,22.17
2022-12-20T05:40:40.867Z,33.40
2022-12-20T05:43:09.523Z,26.83
2022-12-20T05:45:38.413Z,22.83
2022-12-20T05:48:08.219Z,32.37
2022-12-20T05:50:36.850Z,26.23
2022-12-20T05:53:11.259Z,27.93
2022-12-20T05:55:43.346Z,20.30
2022-12-20T05:58:13.391Z,25.03
2022-12-20T06:00:42.542Z,28.30
2022-12-20T06:03:15.286Z,26.10
2022-12-20T06:05:45.077Z,22.17
2022-12-20T06:08:14.220Z,28.13
2022-12-20T06:10:43.227Z,23.47
2022-12-20T06:13:12.316Z,26.37
2022-12-20T06:15:41.199Z,21.40
2022-12-20T06:18:11.405Z,22.67
2022-12-20T06:20:40.394Z,26.47
2022-12-20T06:23:09.682Z,31.43
2022-12-20T06:25:39.818Z,22.57
2022-12-20T06:28:08.628Z,27.23
2022-12-20T06:30:37.373Z,25.27
2022-12-20T06:33:05.631Z,26.43
2022-12-20T06:35:35.621Z,27.20
2022-12-20T06:38:04.064Z,23.40
2022-12-20T06:40:32.601Z,26.07
2022-12-20T06:43:00.892Z,25.20
2022-12-20T06:45:29.523Z,25.37
2022-12-20T06:47:59.013Z,26.50
2022-12-20T06:50:27.995Z,20.23
2022-12-20T06:52:57.675Z,24.20
2022-12-20T06:55:26.277Z,28.90
2022-12-20T06:57:55.382Z,33.57
2022-12-20T07:00:24.654Z,25.97
2022-12-20T07:02:53.240Z,25.07
2022-12-20T07:05:22.083Z,27.63
2022-12-20T07:07:51.116Z,29.00
2022-12-20T07:10:21.348Z,31.47
2022-12-20T07:12:49.772Z,30.87
2022-12-20T07:15:18.665Z,23.47
2022-12-20T07:17:47.051Z,20.87
2022-12-20T07:20:16.711Z,23.13
2022-12-20T07:22:45.211Z,21.97
2022-12-20T07:25:13.891Z,22.97
2022-12-20T07:27:43.852Z,21.97
2022-12-20T07:30:12.936Z,24.83
2022-12-20T07:32:41.308Z,26.60
2022-12-20T07:35:11.668Z,22.20
2022-12-20T07:37:40.381Z,31.10
2022-12-20T07:40:10.528Z,22.63
2022-12-20T07:42:44.511Z,23.63
2022-12-20T07:45:18.350Z,25.93
2022-12-20T07:47:46.626Z,24.20
2022-12-20T07:50:15.634Z,24.43
2022-12-20T07:52:45.955Z,22.83
2022-12-20T07:55:15.875Z,26.00
2022-12-20T07:57:47.541Z,29.37
2022-12-20T08:00:19.375Z,23.87
2022-12-20T08:02:54.657Z,20.30
2022-12-20T08:05:24.490Z,19.13
2022-12-20T08:07:58.983Z,23.57
2022-12-20T08:10:28.993Z,19.43
2022-12-20T08:12:58.731Z,20.60
2022-12-20T08:15:30.340Z,22.57
2022-12-20T08:17:59.132Z,20.37
2022-12-20T08:20:28.137Z,22.57
2022-12-20T08:22:56.526Z,20.90
2022-12-20T08:25:26.613Z,27.27
2022-12-20T08:27:54.900Z,21.80
2022-12-20T08:30:23.685Z,25.53
2022-12-20T08:32:53.357Z,25.90
2022-12-20T08:35:23.142Z,30.03
2022-12-20T08:37:53.344Z,19.90
2022-12-20T08:40:22.255Z,21.20
2022-12-20T08:42:50.863Z,26.40
2022-12-20T08:45:20.229Z,23.97
2022-12-20T08:47:49.066Z,28.57
2022-12-20T08:50:19.538Z,20.30
2022-12-20T08:52:47.812Z,26.80
2022-12-20T08:55:16.543Z,29.33
2022-12-20T08:57:44.848Z,19.50
2022-12-20T09:00:15.181Z,18.73
2022-12-20T09:02:43.672Z,23.07
2022-12-20T09:05:12.398Z,27.53
2022-12-20T09:07:42.093Z,17.30
2022-12-20T09:10:11.777Z,26.30
2022-12-20T09:12:40.689Z,19.50
2022-12-20T09:15:10.712Z,20.50
2022-12-20T09:17:39.317Z,28.50
2022-12-20T09:20:09.084Z,22.00
2022-12-20T09:22:37.592Z,23.77
2022-12-20T09:25:08.831Z,27.37
2022-12-20T09:27:38.134Z,19.07
2022-12-20T09:30:07.989Z,31.47
2022-12-20T09:32:36.329Z,23.60
2022-12-20T09:35:05.145Z,24.53
2022-12-20T09:37:34.328Z,25.70
2022-12-20T09:40:02.517Z,16.77
2022-12-20T09:42:32.970Z,22.47
2022-12-20T09:45:08.679Z,23.70
2022-12-20T09:47:39.370Z,16.70
2022-12-20T09:50:09.003Z,21.63
2022-12-20T09:52:53.134Z,22.93
2022-12-20T09:55:28.460Z,22.90
2022-12-20T09:58:17.250Z,24.37
2022-12-20T10:00:53.882Z,21.20
2022-12-20T10:03:24.799Z,21.60
2022-12-20T10:05:55.862Z,20.10
2022-12-20T10:08:46.499Z,27.77
2022-12-20T10:11:50.290Z,19.00
2022-12-20T10:14:41.079Z,20.97
2022-12-20T10:17:14.615Z,25.47
2022-12-20T10:20:03.512Z,23.37
2022-12-20T10:22:38.994Z,22.70
2022-12-20T10:25:17.740Z,27.67
2022-12-20T10:27:47.747Z,19.00
2022-12-20T10:30:21.168Z,17.70
2022-12-20T10:32:52.303Z,20.23
2022-12-20T10:35:27.423Z,24.13
2022-12-20T10:38:09.580Z,21.20
2022-12-20T10:43:37.842Z,26.83
2022-12-20T10:46:10.561Z,24.67
2022-12-20T10:48:41.582Z,27.70
2022-12-20T10:51:17.105Z,23.63
2022-12-20T10:53:56.112Z,24.00
2022-12-20T10:56:28.709Z,31.43
2022-12-20T10:59:00.093Z,25.40
2022-12-20T11:01:34.718Z,27.23
2022-12-20T11:04:05.793Z,27.67
2022-12-20T11:06:46.514Z,26.40
2022-12-20T11:09:25.851Z,31.80
2022-12-20T11:12:03.784Z,22.00
2022-12-20T11:14:38.877Z,37.30
2022-12-20T11:17:25.401Z,23.80
2022-12-20T11:20:10.545Z,18.90
2022-12-20T11:22:51.270Z,30.30
2022-12-20T11:25:34.515Z,21.20
2022-12-20T11:28:29.861Z,31.37
2022-12-20T11:31:09.241Z,26.77
2022-12-20T11:33:53.060Z,21.30
2022-12-20T11:36:29.619Z,28.10
2022-12-20T11:39:05.549Z,24.57
2022-12-20T11:41:44.451Z,27.10
2022-12-20T11:44:26.915Z,29.23
2022-12-20T11:47:28.400Z,24.63
2022-12-20T11:50:21.385Z,26.03
2022-12-20T11:52:53.327Z,29.23
2022-12-20T11:55:27.683Z,25.43
2022-12-20T11:58:18.095Z,22.43
2022-12-20T12:00:53.703Z,28.47
2022-12-20T12:03:29.527Z,26.47
2022-12-20T12:06:04.430Z,29.53
2022-12-20T12:08:41.927Z,32.77
2022-12-20T12:11:55.711Z,28.40
2022-12-20T12:14:08.249Z,31.03
2022-12-20T12:16:42.027Z,26.47
2022-12-20T12:19:12.898Z,33.67
2022-12-20T12:21:48.313Z,23.00
2022-12-20T12:24:24.516Z,33.53
2022-12-20T12:26:55.472Z,31.73
2022-12-20T12:29:24.112Z,34.70
2022-12-20T12:31:58.231Z,44.50
2022-12-20T12:34:40.967Z,33.83
2022-12-20T12:37:42.110Z,31.53
2022-12-20T12:40:26.727Z,41.20
2022-12-20T12:43:24.034Z,35.70
2022-12-20T12:45:57.885Z,30.03
2022-12-20T12:48:38.522Z,37.00
2022-12-20T12:51:08.432Z,33.47
2022-12-20T12:53:39.453Z,31.90
2022-12-20T12:56:46.646Z,41.07
2022-12-20T12:59:26.249Z,28.77
2022-12-20T13:01:56.746Z,41.60
2022-12-20T13:04:29.099Z,33.40
2022-12-20T13:07:01.545Z,29.50
2022-12-20T13:09:42.985Z,36.77
2022-12-20T13:12:53.430Z,38.87
2022-12-20T13:15:52.301Z,34.67
2022-12-20T13:18:29.300Z,37.30
2022-12-20T13:21:18.833Z,26.03
2022-12-20T13:23:47.234Z,31.13
2022-12-20T13:26:50.699Z,31.50
2022-12-20T13:29:27.311Z,38.67
2022-12-20T13:31:57.601Z,34.80
2022-12-20T13:34:41.585Z,35.17
2022-12-20T13:37:30.082Z,28.67
2022-12-20T13:40:01.335Z,24.53
2022-12-20T13:42:40.381Z,28.40
2022-12-20T13:45:14.559Z,30.63
2022-12-20T13:47:49.709Z,31.27
2022-12-20T13:50:32.932Z,31.07
2022-12-20T13:53:03.085Z,32.87
2022-12-20T13:55:37.944Z,35.40
2022-12-20T13:58:12.867Z,29.27
2022-12-20T14:00:41.768Z,32.20
2022-12-20T14:03:22.237Z,33.70
2022-12-20T14:05:53.159Z,39.93
2022-12-20T14:08:26.664Z,33.20
2022-12-20T14:10:55.119Z,29.17
2022-12-20T14:13:27.012Z,32.60
2022-12-20T14:15:56.702Z,29.77
2022-12-20T14:18:27.542Z,46.30
2022-12-20T14:20:59.520Z,45.37
2022-12-20T14:23:36.545Z,37.07
2022-12-20T14:26:05.701Z,31.73
2022-12-20T14:28:38.926Z,32.77
2022-12-20T14:31:09.138Z,29.83
2022-12-20T14:33:41.128Z,32.57
2022-12-20T14:36:19.890Z,34.80
2022-12-20T14:38:52.357Z,27.93
2022-12-20T14:41:33.253Z,34.67
2022-12-20T14:44:07.018Z,34.60
2022-12-20T14:46:36.705Z,33.87
2022-12-20T14:49:22.448Z,38.63
2022-12-20T14:51:51.611Z,32.70
2022-12-20T14:54:56.708Z,29.77
2022-12-20T14:57:13.861Z,32.20
2022-12-20T14:59:42.480Z,43.87
2022-12-20T15:02:35.670Z,28.83
2022-12-20T15:05:31.432Z,39.27
2022-12-20T15:08:11.968Z,42.43
2022-12-20T15:10:42.285Z,32.03
2022-12-20T15:13:16.060Z,30.27
2022-12-20T15:15:45.611Z,38.33
2022-12-20T15:18:14.978Z,32.47
2022-12-20T15:20:46.838Z,33.03
2022-12-20T15:23:17.694Z,38.27
2022-12-20T15:25:47.107Z,44.67
2022-12-20T15:28:17.842Z,33.43
2022-12-20T15:30:47.544Z,32.03
2022-12-20T15:33:21.400Z,34.50
2022-12-20T15:35:52.558Z,33.30
2022-12-20T15:38:40.969Z,42.00
2022-12-20T15:41:18.370Z,28.43
2022-12-20T15:43:46.960Z,25.47
2022-12-20T15:46:15.555Z,36.47
2022-12-20T15:48:44.336Z,32.33
2022-12-20T15:51:18.538Z,31.23
2022-12-20T15:53:46.894Z,36.70
2022-12-20T15:56:21.870Z,30.30
2022-12-20T15:58:52.762Z,43.20
2022-12-20T16:01:25.176Z,37.90
2022-12-20T16:03:53.672Z,28.90
2022-12-20T16:06:24.112Z,30.87
2022-12-20T16:08:52.739Z,39.27
2022-12-20T16:11:23.494Z,35.77
2022-12-20T16:13:52.679Z,31.67
2022-12-20T16:16:24.000Z,37.13
2022-12-20T16:18:53.950Z,36.73
2022-12-20T16:21:25.383Z,31.70
2022-12-20T16:23:54.089Z,32.67
2022-12-20T16:26:24.514Z,39.93
2022-12-20T16:28:57.261Z,32.70
2022-12-20T16:31:29.284Z,41.93
2022-12-20T16:33:58.067Z,42.37
2022-12-20T16:36:29.300Z,32.77
2022-12-20T16:38:57.865Z,36.80
2022-12-20T16:41:28.544Z,37.80
2022-12-20T16:43:58.329Z,48.30
2022-12-20T16:46:29.823Z,41.10
2022-12-20T16:49:00.097Z,37.10
2022-12-20T16:51:32.364Z,42.83
2022-12-20T16:54:18.711Z,52.07
2022-12-20T16:56:51.113Z,50.40
2022-12-20T16:59:22.226Z,43.17
2022-12-20T17:01:54.071Z,42.57
2022-12-20T17:04:22.872Z,48.53
2022-12-20T17:06:52.845Z,38.37
2022-12-20T17:09:21.603Z,35.50
2022-12-20T17:11:50.499Z,45.00
2022-12-20T17:14:20.052Z,33.23
2022-12-20T17:16:48.802Z,44.53
2022-12-20T17:19:17.491Z,34.93
2022-12-20T17:24:36.549Z,36.00
2022-12-20T17:27:05.693Z,39.27
2022-12-20T17:29:34.008Z,51.83
2022-12-20T17:32:03.896Z,47.97
2022-12-20T17:34:32.585Z,40.20
2022-12-20T17:37:01.247Z,45.70
2022-12-20T17:39:29.709Z,37.73
2022-12-20T17:42:01.073Z,46.37
2022-12-20T17:44:29.968Z,41.13
2022-12-20T17:46:59.648Z,57.87
2022-12-20T17:49:28.057Z,54.67
2022-12-20T17:51:57.147Z,55.20
2022-12-20T17:54:30.762Z,57.03
2022-12-20T17:57:05.073Z,44.70
2022-12-20T17:59:33.422Z,55.60
2022-12-20T18:02:02.507Z,46.93
2022-12-20T18:04:31.104Z,49.83
2022-12-20T18:07:00.833Z,58.60
2022-12-20T18:09:29.112Z,44.93
2022-12-20T18:11:57.821Z,55.37
2022-12-20T18:14:27.653Z,47.53
2022-12-20T18:16:56.632Z,57.43
2022-12-20T18:19:25.371Z,42.13
2022-12-20T18:21:53.986Z,47.30
2022-12-20T18:24:22.251Z,44.23
2022-12-20T18:26:51.012Z,41.97
2022-12-20T18:29:19.293Z,44.60
2022-12-20T18:31:49.743Z,39.00
2022-12-20T18:34:18.262Z,44.37
2022-12-20T18:36:47.372Z,37.47
2022-12-20T18:39:16.080Z,42.23
2022-12-20T18:41:44.814Z,38.00
2022-12-20T18:44:13.583Z,46.37
2022-12-20T18:46:42.379Z,48.13
2022-12-20T18:49:12.218Z,33.57
2022-12-20T18:51:40.795Z,42.60
2022-12-20T18:54:12.564Z,44.43
2022-12-20T18:56:41.721Z,47.77
2022-12-20T18:59:12.766Z,41.07
2022-12-20T19:01:43.413Z,35.03
2022-12-20T19:04:15.085Z,45.57
2022-12-20T19:06:45.464Z,46.53
2022-12-20T19:09:14.803Z,40.30
2022-12-20T19:11:44.134Z,45.90
2022-12-20T19:14:13.677Z,40.87
2022-12-20T19:16:42.760Z,32.73
2022-12-20T19:19:11.249Z,43.10
2022-12-20T19:21:42.778Z,55.43
2022-12-20T19:24:12.556Z,44.50
2022-12-20T19:26:41.847Z,43.87
2022-12-20T19:29:11.738Z,47.00
2022-12-20T19:31:40.848Z,40.07
2022-12-20T19:34:12.134Z,42.20
2022-12-20T19:36:43.902Z,40.47
2022-12-20T19:39:16.943Z,39.50
2022-12-20T19:42:05.970Z,38.17
2022-12-20T19:44:33.988Z,46.67
2022-12-20T19:47:05.613Z,40.23
2022-12-20T19:49:35.520Z,41.97
2022-12-20T19:52:07.501Z,49.43
2022-12-20T19:54:36.374Z,43.43
2022-12-20T19:57:05.523Z,33.43
2022-12-20T19:59:33.786Z,39.43
2022-12-20T20:02:02.809Z,36.17
2022-12-20T20:04:31.227Z,38.47
2022-12-20T20:06:59.923Z,34.77
2022-12-20T20:09:30.216Z,33.87
2022-12-20T20:11:59.042Z,34.87
2022-12-20T20:14:27.339Z,37.50
2022-12-20T20:16:56.014Z,40.57
2022-12-20T20:19:24.421Z,39.30
2022-12-20T20:21:53.785Z,39.40
2022-12-20T20:24:22.126Z,34.33
2022-12-20T20:26:52.002Z,32.53
2022-12-20T20:29:20.655Z,35.13
2022-12-20T20:31:49.633Z,43.47
2022-12-20T20:34:18.130Z,45.17
2022-12-20T20:36:47.196Z,36.17
2022-12-20T20:39:15.537Z,37.17
2022-12-20T20:41:44.191Z,39.60
2022-12-20T20:44:14.395Z,44.57
2022-12-20T20:46:43.209Z,34.23
2022-12-20T20:49:11.651Z,39.10
2022-12-20T20:51:40.340Z,37.17
2022-12-20T20:54:08.599Z,43.00
2022-12-20T20:56:37.293Z,42.03
2022-12-20T20:59:08.280Z,39.23
2022-12-20T21:01:42.328Z,38.40
2022-12-20T21:04:10.724Z,38.63
2022-12-20T21:06:41.749Z,45.30
2022-12-20T21:09:11.523Z,42.00
2022-12-20T21:11:40.772Z,42.57
2022-12-20T21:14:09.504Z,39.27
2022-12-20T21:16:38.422Z,36.67
2022-12-20T21:19:10.477Z,40.17
2022-12-20T21:21:39.102Z,34.73
2022-12-20T21:24:08.812Z,39.87
2022-12-20T21:26:37.946Z,41.37
2022-12-20T21:29:06.169Z,47.20
2022-12-20T21:31:34.829Z,33.77
2022-12-20T21:34:03.414Z,40.40
2022-12-20T21:36:33.623Z,39.67
2022-12-20T21:39:01.871Z,39.77
2022-12-20T21:41:30.789Z,40.07
2022-12-20T21:44:00.081Z,30.30
2022-12-20T21:46:32.007Z,37.37
2022-12-20T21:49:00.961Z,42.83
2022-12-20T21:51:30.925Z,35.60
2022-12-20T21:54:02.058Z,36.00
2022-12-20T21:56:32.415Z,48.23
2022-12-20T21:59:00.897Z,32.67
2022-12-20T22:01:30.770Z,32.57
2022-12-20T22:04:00.949Z,38.57
2022-12-20T22:06:31.448Z,47.53
2022-12-20T22:09:02.155Z,40.30
2022-12-20T22:11:30.803Z,37.40
2022-12-20T22:13:59.528Z,31.40
2022-12-20T22:16:30.194Z,38.77
2022-12-20T22:18:59.637Z,33.93
2022-12-20T22:21:29.680Z,35.10
2022-12-20T22:24:02.124Z,42.57
2022-12-20T22:26:33.579Z,37.97
2022-12-20T22:29:03.788Z,39.63
2022-12-20T22:31:32.691Z,43.33
2022-12-20T22:34:02.042Z,36.47
2022-12-20T22:36:31.191Z,38.43
2022-12-20T22:39:01.259Z,31.63
2022-12-20T22:41:32.627Z,40.83
2022-12-20T22:44:01.665Z,36.87
2022-12-20T22:49:18.697Z,42.47
2022-12-20T22:51:55.169Z,33.47
2022-12-20T22:54:36.515Z,38.67
2022-12-20T22:57:05.139Z,42.97
2022-12-20T22:59:34.810Z,41.37
2022-12-20T23:02:03.496Z,36.07
2022-12-20T23:04:32.579Z,30.20
2022-12-20T23:07:01.269Z,46.10
2022-12-20T23:09:29.682Z,37.23
2022-12-20T23:12:18.358Z,50.07
2022-12-20T23:15:04.592Z,33.80
2022-12-20T23:17:33.987Z,40.17
2022-12-20T23:20:19.581Z,37.93
2022-12-20T23:22:48.547Z,41.20
2022-12-20T23:25:19.136Z,39.80
2022-12-20T23:27:50.723Z,46.43
2022-12-20T23:30:20.899Z,35.23
2022-12-20T23:32:49.877Z,33.13
2022-12-20T23:35:20.416Z,35.97
2022-12-20T23:37:49.510Z,38.60
2022-12-20T23:40:18.976Z,34.40
2022-12-20T23:42:48.921Z,38.33
2022-12-20T23:45:17.300Z,38.97
2022-12-20T23:47:46.085Z,35.83
2022-12-20T23:50:14.576Z,39.03
2022-12-20T23:52:43.437Z,42.03
2022-12-20T23:55:12.059Z,38.50
2022-12-20T23:57:40.587Z,36.10
